createdAt,value
2017-06-03T01:21:52.103Z,11.90
2017-06-03T01:24:20.423Z,11.80
2017-06-03T01:26:48.742Z,11.80
2017-06-03T01:29:16.276Z,11.80
2017-06-03T01:31:44.604Z,11.70
2017-06-03T01:34:12.123Z,11.70
2017-06-03T01:36:39.628Z,11.60
2017-06-03T01:39:07.458Z,11.60
2017-06-03T01:41:35.324Z,11.60
2017-06-03T01:44:03.903Z,11.60
2017-06-03T01:46:32.483Z,11.50
2017-06-03T01:49:00.023Z,11.50
2017-06-03T01:51:27.603Z,11.50
2017-06-03T01:53:55.119Z,11.50
2017-06-03T01:56:22.722Z,11.50
2017-06-03T01:58:50.477Z,11.40
2017-06-03T02:01:18.005Z,11.40
2017-06-03T02:03:45.535Z,11.30
2017-06-03T02:06:13.044Z,11.30
2017-06-03T02:08:40.568Z,11.30
2017-06-03T02:11:08.837Z,11.30
2017-06-03T02:13:37.383Z,11.30
2017-06-03T02:16:04.952Z,11.30
2017-06-03T02:18:33.260Z,11.50
2017-06-03T02:21:00.760Z,11.50
2017-06-03T02:23:28.344Z,11.70
2017-06-03T02:25:55.839Z,11.70
2017-06-03T02:28:24.184Z,11.90
2017-06-03T02:30:51.759Z,11.90
2017-06-03T02:33:19.559Z,11.90
2017-06-03T02:35:47.127Z,11.90
2017-06-03T02:38:14.658Z,11.90
2017-06-03T02:40:42.175Z,11.80
2017-06-03T02:43:09.680Z,11.80
2017-06-03T02:45:37.296Z,11.80
2017-06-03T02:48:04.796Z,11.80
2017-06-03T02:50:33.106Z,11.80
2017-06-03T02:53:00.681Z,11.80
2017-06-03T02:55:28.949Z,11.80
2017-06-03T02:57:57.255Z,11.90
2017-06-03T03:00:25.527Z,11.90
2017-06-03T03:02:53.100Z,11.80
2017-06-03T03:05:20.879Z,11.80
2017-06-03T03:07:48.413Z,11.80
2017-06-03T03:10:17.015Z,11.80
2017-06-03T03:12:44.616Z,11.80
2017-06-03T03:15:12.184Z,11.90
2017-06-03T03:17:40.459Z,12.10
2017-06-03T03:20:08.801Z,12.10
2017-06-03T03:22:36.301Z,12.00
2017-06-03T03:25:04.926Z,12.20
2017-06-03T03:27:32.698Z,12.20
2017-06-03T03:30:01.012Z,12.30
2017-06-03T03:32:28.543Z,12.30
2017-06-03T03:34:56.316Z,12.40
2017-06-03T03:37:23.847Z,12.50
2017-06-03T03:39:51.439Z,12.50
2017-06-03T03:42:18.959Z,12.70
2017-06-03T03:44:46.521Z,12.80
2017-06-03T03:47:14.047Z,12.80
2017-06-03T03:49:41.588Z,12.90
2017-06-03T03:52:09.937Z,12.80
2017-06-03T03:54:37.483Z,12.80
2017-06-03T03:57:04.988Z,12.80
2017-06-03T03:59:33.274Z,12.80
2017-06-03T04:02:01.074Z,12.80
2017-06-03T04:04:29.363Z,13.00
2017-06-03T04:06:56.867Z,13.00
2017-06-03T04:09:25.155Z,13.50
2017-06-03T04:11:52.712Z,13.40
2017-06-03T04:14:20.296Z,13.70
2017-06-03T04:16:47.805Z,14.00
2017-06-03T04:19:15.587Z,14.40
2017-06-03T04:21:43.896Z,15.00
2017-06-03T04:24:11.441Z,14.90
2017-06-03T04:26:39.283Z,15.10
2017-06-03T04:29:06.779Z,15.30
2017-06-03T04:31:34.603Z,15.10
2017-06-03T04:34:02.367Z,15.10
2017-06-03T04:36:31.051Z,15.20
2017-06-03T04:38:58.551Z,15.20
2017-06-03T04:41:26.129Z,15.30
2017-06-03T04:43:53.651Z,15.40
2017-06-03T04:46:21.196Z,15.50
2017-06-03T04:48:49.503Z,15.90
2017-06-03T04:51:17.791Z,16.20
2017-06-03T04:53:46.124Z,16.50
2017-06-03T04:56:14.422Z,16.70
2017-06-03T04:58:42.239Z,16.70
2017-06-03T05:01:09.777Z,16.90
2017-06-03T05:03:37.349Z,17.00
2017-06-03T05:06:04.904Z,17.20
2017-06-03T05:08:33.283Z,17.20
2017-06-03T05:11:00.775Z,17.20
2017-06-03T05:13:29.430Z,17.70
2017-06-03T05:15:56.928Z,17.60
2017-06-03T05:18:24.447Z,18.20
2017-06-03T05:20:51.943Z,19.50
2017-06-03T05:23:19.459Z,20.80
2017-06-03T05:25:47.003Z,22.30
2017-06-03T05:28:15.288Z,25.80
2017-06-03T05:30:43.707Z,25.60
2017-06-03T05:33:11.983Z,26.20
2017-06-03T05:35:39.801Z,26.10
2017-06-03T05:38:07.330Z,26.50
2017-06-03T05:40:34.904Z,27.60
2017-06-03T05:43:02.467Z,28.00
2017-06-03T05:45:30.236Z,29.10
2017-06-03T05:47:57.800Z,29.70
2017-06-03T05:50:26.375Z,29.00
2017-06-03T05:52:54.958Z,28.90
2017-06-03T05:55:22.479Z,28.90
2017-06-03T05:57:49.999Z,28.80
2017-06-03T06:00:17.590Z,29.20
2017-06-03T06:02:45.112Z,29.60
2017-06-03T06:05:12.888Z,29.10
2017-06-03T06:07:41.528Z,28.00
2017-06-03T06:10:10.107Z,26.80
2017-06-03T06:12:37.631Z,26.70
2017-06-03T06:15:05.179Z,25.70
2017-06-03T06:17:33.439Z,26.10
2017-06-03T06:20:00.947Z,26.10
2017-06-03T06:22:28.519Z,26.10
2017-06-03T06:24:56.275Z,26.80
2017-06-03T06:27:23.795Z,28.60
2017-06-03T06:29:51.512Z,29.60
2017-06-03T06:32:19.010Z,28.50
2017-06-03T06:34:46.519Z,28.90
2017-06-03T06:37:14.780Z,30.50
2017-06-03T06:39:43.358Z,30.70
2017-06-03T06:42:11.079Z,30.70
2017-06-03T06:44:38.579Z,30.80
2017-06-03T06:47:06.855Z,32.40
2017-06-03T06:49:34.397Z,32.40
2017-06-03T06:52:02.032Z,32.90
2017-06-03T06:54:29.828Z,32.60
2017-06-03T06:56:58.145Z,30.80
2017-06-03T06:59:26.448Z,28.80
2017-06-03T07:01:54.708Z,30.30
2017-06-03T07:04:22.248Z,30.30
2017-06-03T07:06:50.556Z,29.40
2017-06-03T07:09:18.376Z,29.40
2017-06-03T07:11:45.951Z,28.00
2017-06-03T07:14:14.227Z,27.50
2017-06-03T07:16:41.796Z,27.50
2017-06-03T07:19:09.295Z,28.30
2017-06-03T07:21:37.906Z,28.90
2017-06-03T07:24:05.403Z,28.90
2017-06-03T07:26:33.675Z,29.90
2017-06-03T07:29:01.192Z,28.30
2017-06-03T07:31:29.586Z,29.10
2017-06-03T07:33:58.147Z,28.30
2017-06-03T07:36:25.907Z,28.30
2017-06-03T07:38:54.567Z,29.90
2017-06-03T07:41:22.835Z,30.40
2017-06-03T07:43:51.424Z,30.80
2017-06-03T07:46:19.702Z,29.80
2017-06-03T07:48:47.466Z,29.70
2017-06-03T07:51:15.228Z,30.60
2017-06-03T07:53:43.495Z,32.10
2017-06-03T07:56:12.117Z,30.60
2017-06-03T07:58:39.705Z,30.60
2017-06-03T08:01:07.508Z,30.30
2017-06-03T08:03:35.836Z,31.70
2017-06-03T08:06:03.640Z,31.60
2017-06-03T08:08:31.236Z,30.70
2017-06-03T08:11:35.123Z,29.60
2017-06-03T08:14:02.716Z,29.00
2017-06-03T08:16:31.244Z,28.60
2017-06-03T08:18:58.771Z,28.60
2017-06-03T08:21:26.559Z,29.50
2017-06-03T08:23:54.114Z,28.80
2017-06-03T08:26:21.677Z,29.20
2017-06-03T08:28:49.223Z,29.20
2017-06-03T08:31:16.792Z,28.00
2017-06-03T08:33:44.275Z,28.80
2017-06-03T08:36:12.111Z,29.20
2017-06-03T08:38:39.659Z,29.20
2017-06-03T08:41:07.152Z,29.20
2017-06-03T08:43:34.668Z,28.10
2017-06-03T08:46:02.444Z,29.00
2017-06-03T08:48:30.308Z,27.80
2017-06-03T08:50:58.067Z,28.70
2017-06-03T08:53:25.580Z,27.80
2017-06-03T08:55:53.835Z,27.10
2017-06-03T08:58:21.326Z,27.10
2017-06-03T09:00:48.857Z,26.90
2017-06-03T09:03:16.455Z,26.30
2017-06-03T09:05:43.960Z,26.00
2017-06-03T09:08:11.551Z,25.80
2017-06-03T09:10:39.124Z,25.70
2017-06-03T09:13:06.647Z,26.60
2017-06-03T09:15:34.172Z,26.10
2017-06-03T09:18:01.691Z,25.80
2017-06-03T09:20:29.234Z,26.00
2017-06-03T09:22:56.808Z,25.70
2017-06-03T09:25:24.308Z,25.40
2017-06-03T09:27:51.827Z,26.10
2017-06-03T09:30:19.356Z,26.50
2017-06-03T09:32:46.859Z,26.00
2017-06-03T09:35:14.408Z,26.30
2017-06-03T09:37:41.944Z,26.50
2017-06-03T09:40:09.512Z,27.40
2017-06-03T09:42:37.075Z,27.90
2017-06-03T09:45:04.950Z,27.80
2017-06-03T09:47:32.474Z,27.00
2017-06-03T09:49:59.967Z,27.40
2017-06-03T09:52:27.499Z,28.00
2017-06-03T09:54:55.007Z,28.00
2017-06-03T09:57:22.503Z,28.60
2017-06-03T09:59:50.015Z,28.30
2017-06-03T10:02:17.552Z,27.00
2017-06-03T10:04:45.417Z,27.40
2017-06-03T10:07:12.919Z,27.40
2017-06-03T10:09:41.175Z,27.60
2017-06-03T10:12:09.719Z,27.50
2017-06-03T10:14:37.212Z,27.50
2017-06-03T10:17:04.731Z,27.50
2017-06-03T10:19:32.491Z,27.60
2017-06-03T10:22:00.359Z,27.10
2017-06-03T10:24:27.848Z,26.40
2017-06-03T10:26:55.367Z,26.00
2017-06-03T10:29:22.935Z,26.00
2017-06-03T10:31:50.431Z,25.80
2017-06-03T10:34:18.212Z,26.00
2017-06-03T10:36:45.720Z,26.00
2017-06-03T10:39:13.232Z,25.80
2017-06-03T10:41:40.736Z,25.50
2017-06-03T10:44:08.248Z,25.60
2017-06-03T10:46:35.984Z,26.40
2017-06-03T10:49:04.266Z,27.30
2017-06-03T10:51:32.040Z,27.30
2017-06-03T10:53:59.531Z,27.60
2017-06-03T10:56:27.087Z,27.80
2017-06-03T10:58:54.850Z,27.70
2017-06-03T11:01:22.432Z,27.80
2017-06-03T11:03:49.935Z,27.80
2017-06-03T11:06:17.456Z,27.70
2017-06-03T11:08:45.720Z,27.50
2017-06-03T11:11:13.232Z,27.50
2017-06-03T11:13:40.769Z,27.40
2017-06-03T11:16:08.340Z,27.30
2017-06-03T11:18:35.859Z,27.30
2017-06-03T11:21:03.368Z,27.20
2017-06-03T11:23:30.924Z,27.00
2017-06-03T11:25:58.719Z,27.20
2017-06-03T11:28:26.262Z,27.30
2017-06-03T11:30:54.633Z,27.40
2017-06-03T11:33:22.204Z,26.90
2017-06-03T11:35:49.701Z,26.90
2017-06-03T11:38:18.008Z,28.00
2017-06-03T11:40:45.782Z,28.00
2017-06-03T11:43:13.272Z,28.30
2017-06-03T11:45:40.783Z,28.80
2017-06-03T11:48:08.287Z,27.60
2017-06-03T11:50:36.638Z,27.00
2017-06-03T11:53:04.151Z,27.00
2017-06-03T11:55:31.689Z,27.10
2017-06-03T11:57:59.942Z,27.50
2017-06-03T12:00:27.527Z,27.40
2017-06-03T12:02:55.020Z,26.80
2017-06-03T12:05:22.548Z,26.40
2017-06-03T12:07:50.347Z,26.50
2017-06-03T12:10:17.863Z,26.50
2017-06-03T12:12:46.147Z,27.30
2017-06-03T12:15:13.679Z,27.30
2017-06-03T12:17:41.958Z,26.70
2017-06-03T12:20:09.538Z,26.60
2017-06-03T12:22:37.130Z,26.30
2017-06-03T12:25:04.994Z,26.30
2017-06-03T12:27:32.812Z,26.30
2017-06-03T12:30:01.164Z,26.40
2017-06-03T12:32:28.662Z,26.40
2017-06-03T12:34:56.451Z,26.60
2017-06-03T12:37:24.212Z,26.80
2017-06-03T12:39:51.972Z,26.90
2017-06-03T12:42:19.459Z,26.80
2017-06-03T12:44:46.964Z,26.30
2017-06-03T12:47:14.517Z,25.80
2017-06-03T12:49:42.377Z,25.70
2017-06-03T12:52:09.891Z,25.70
2017-06-03T12:54:37.726Z,25.60
2017-06-03T12:57:05.247Z,25.70
2017-06-03T12:59:32.976Z,26.20
2017-06-03T13:02:00.515Z,26.20
2017-06-03T13:04:28.363Z,26.30
2017-06-03T13:06:55.867Z,26.50
2017-06-03T13:09:24.143Z,25.70
2017-06-03T13:11:52.403Z,25.50
2017-06-03T13:14:19.956Z,25.50
2017-06-03T13:16:47.455Z,25.80
2017-06-03T13:19:15.256Z,25.90
2017-06-03T13:21:43.008Z,26.20
2017-06-03T13:24:10.787Z,26.30
2017-06-03T13:26:38.279Z,26.10
2017-06-03T13:29:06.587Z,26.20
2017-06-03T13:31:34.362Z,26.20
2017-06-03T13:34:01.928Z,26.10
2017-06-03T13:36:29.426Z,25.80
2017-06-03T13:38:57.687Z,25.90
2017-06-03T13:41:25.207Z,25.90
2017-06-03T13:43:52.699Z,25.60
2017-06-03T13:46:20.239Z,25.60
2017-06-03T13:48:47.739Z,25.40
2017-06-03T13:51:15.228Z,25.40
2017-06-03T13:53:42.797Z,25.20
2017-06-03T13:56:10.667Z,24.90
2017-06-03T13:58:38.204Z,24.70
2017-06-03T14:01:05.691Z,24.70
2017-06-03T14:03:33.226Z,24.60
2017-06-03T14:06:00.785Z,24.60
2017-06-03T14:08:28.275Z,24.70
2017-06-03T14:10:56.103Z,24.80
2017-06-03T14:13:23.596Z,24.90
2017-06-03T14:15:51.431Z,25.00
2017-06-03T14:18:18.944Z,25.20
2017-06-03T14:20:46.529Z,25.50
2017-06-03T14:23:14.084Z,25.90
2017-06-03T14:25:41.591Z,26.30
2017-06-03T14:28:09.892Z,26.80
2017-06-03T14:30:37.427Z,26.80
2017-06-03T14:33:05.692Z,26.80
2017-06-03T14:35:34.093Z,26.60
2017-06-03T14:38:01.592Z,26.60
2017-06-03T14:40:29.088Z,26.40
2017-06-03T14:42:57.416Z,26.70
2017-06-03T14:45:24.946Z,26.70
2017-06-03T14:47:52.703Z,27.10
2017-06-03T14:50:20.207Z,27.00
2017-06-03T14:52:47.723Z,27.00
2017-06-03T14:55:15.216Z,26.50
2017-06-03T14:57:42.776Z,26.40
2017-06-03T15:00:10.299Z,26.10
2017-06-03T15:02:38.092Z,26.00
2017-06-03T15:05:05.599Z,25.80
2017-06-03T15:07:34.104Z,25.40
2017-06-03T15:10:01.640Z,25.40
2017-06-03T15:12:29.239Z,25.30
2017-06-03T15:14:56.801Z,25.20
2017-06-03T15:17:24.291Z,24.90
2017-06-03T15:19:51.847Z,24.70
2017-06-03T15:22:19.340Z,24.40
2017-06-03T15:24:47.639Z,24.10
2017-06-03T15:27:15.187Z,23.60
2017-06-03T15:29:43.848Z,23.30
2017-06-03T15:32:11.364Z,23.10
2017-06-03T15:34:38.916Z,22.70
2017-06-03T15:37:06.426Z,22.00
2017-06-03T15:39:33.923Z,21.30
2017-06-03T15:42:01.456Z,19.90
2017-06-03T15:44:28.963Z,19.00
2017-06-03T15:46:57.267Z,18.30
2017-06-03T15:49:25.656Z,18.30
2017-06-03T15:51:53.143Z,18.20
2017-06-03T15:54:20.988Z,18.10
2017-06-03T15:56:48.499Z,17.90
2017-06-03T15:59:16.840Z,17.80
2017-06-03T16:01:44.328Z,17.80
2017-06-03T16:04:12.644Z,17.90
2017-06-03T16:06:40.415Z,17.90
2017-06-03T16:09:07.907Z,18.00
2017-06-03T16:11:35.448Z,18.00
2017-06-03T16:14:02.977Z,18.00
2017-06-03T16:16:30.541Z,17.90
2017-06-03T16:18:58.039Z,17.80
2017-06-03T16:21:25.558Z,17.80
2017-06-03T16:23:53.111Z,17.80
2017-06-03T16:26:20.712Z,17.80
2017-06-03T16:28:48.203Z,17.90
2017-06-03T16:31:16.012Z,17.90
2017-06-03T16:33:43.499Z,18.00
2017-06-03T16:36:10.996Z,18.00
2017-06-03T16:38:38.503Z,18.10
2017-06-03T16:41:06.795Z,18.10
2017-06-03T16:43:35.415Z,18.10
2017-06-03T16:46:02.926Z,18.10
2017-06-03T16:48:31.450Z,18.20
2017-06-03T16:50:59.020Z,18.20
2017-06-03T16:53:26.529Z,18.30
2017-06-03T16:55:54.014Z,18.40
2017-06-03T16:58:21.785Z,18.50
2017-06-03T17:00:49.276Z,18.50
2017-06-03T17:03:16.808Z,18.50
2017-06-03T17:05:44.437Z,18.70
2017-06-03T17:08:12.255Z,18.90
2017-06-03T17:10:39.764Z,18.90
2017-06-03T17:13:07.259Z,18.80
2017-06-03T17:15:34.781Z,18.70
2017-06-03T17:18:02.325Z,18.70
2017-06-03T17:20:29.884Z,18.80
2017-06-03T17:22:57.384Z,18.70
2017-06-03T17:25:25.122Z,18.50
2017-06-03T17:27:52.630Z,18.40
2017-06-03T17:30:20.964Z,18.30
2017-06-03T17:32:48.507Z,18.30
2017-06-03T17:35:16.008Z,18.30
2017-06-03T17:37:43.559Z,18.20
2017-06-03T17:40:11.051Z,18.20
2017-06-03T17:42:38.616Z,18.00
2017-06-03T17:45:06.401Z,17.90
2017-06-03T17:47:34.140Z,17.90
2017-06-03T17:50:01.778Z,17.80
2017-06-03T17:52:30.057Z,17.60
2017-06-03T17:54:57.567Z,17.60
2017-06-03T17:57:25.427Z,17.50
2017-06-03T17:59:53.279Z,17.40
2017-06-03T18:02:22.679Z,17.30
2017-06-03T18:04:50.213Z,17.20
2017-06-03T18:07:17.752Z,17.20
2017-06-03T18:09:46.087Z,17.20
2017-06-03T18:12:14.754Z,17.10
2017-06-03T18:14:42.276Z,17.10
2017-06-03T18:17:09.858Z,17.10
2017-06-03T18:19:37.435Z,17.00
2017-06-03T18:22:10.748Z,17.20
2017-06-03T18:24:38.267Z,17.10
2017-06-03T18:27:05.799Z,17.10
2017-06-03T18:29:33.298Z,16.90
2017-06-03T18:32:00.792Z,16.90
2017-06-03T18:34:28.308Z,16.80
2017-06-03T18:36:56.063Z,16.80
2017-06-03T18:39:23.619Z,16.80
2017-06-03T18:41:51.120Z,16.70
2017-06-03T18:44:19.407Z,16.60
2017-06-03T18:46:47.712Z,16.50
2017-06-03T18:49:15.268Z,16.60
2017-06-03T18:51:42.849Z,16.60
2017-06-03T18:54:10.752Z,16.60
2017-06-03T18:56:39.019Z,16.70
2017-06-03T18:59:06.520Z,16.60
2017-06-03T19:01:34.041Z,16.70
2017-06-03T19:04:02.307Z,16.70
2017-06-03T19:06:29.911Z,16.70
2017-06-03T19:08:57.422Z,16.70
2017-06-03T19:11:25.187Z,16.70
2017-06-03T19:13:53.507Z,16.70
2017-06-03T19:16:21.070Z,16.70
2017-06-03T19:18:48.578Z,16.70
2017-06-03T19:21:16.907Z,16.70
2017-06-03T19:23:44.427Z,16.70
2017-06-03T19:26:11.932Z,16.70
2017-06-03T19:28:39.911Z,16.70
2017-06-03T19:31:07.454Z,16.60
2017-06-03T19:33:35.018Z,16.60
2017-06-03T19:36:02.729Z,16.60
2017-06-03T19:38:30.332Z,16.50
2017-06-03T19:40:57.850Z,16.50
2017-06-03T19:43:25.338Z,16.50
2017-06-03T19:45:52.853Z,16.40
2017-06-03T19:48:20.351Z,16.40
2017-06-03T19:50:47.864Z,16.30
2017-06-03T19:53:16.152Z,16.30
2017-06-03T19:55:43.697Z,16.30
2017-06-03T19:58:11.503Z,16.30
2017-06-03T20:00:39.065Z,16.30
2017-06-03T20:03:06.560Z,16.30
2017-06-03T20:05:34.060Z,16.30
2017-06-03T20:08:01.599Z,16.30
2017-06-03T20:10:29.101Z,16.30
2017-06-03T20:12:56.668Z,16.30
2017-06-03T20:15:24.506Z,16.20
2017-06-03T20:17:52.298Z,16.10
2017-06-03T20:20:19.813Z,16.10
2017-06-03T20:22:47.382Z,16.10
2017-06-03T20:25:14.903Z,16.00
2017-06-03T20:27:42.387Z,16.00
2017-06-03T20:30:09.896Z,16.00
2017-06-03T20:32:38.433Z,15.90
2017-06-03T20:35:06.775Z,15.90
2017-06-03T20:37:34.836Z,15.90
2017-06-03T20:40:03.112Z,15.90
2017-06-03T20:42:30.827Z,15.90
2017-06-03T20:44:58.343Z,15.80
2017-06-03T20:47:25.833Z,15.80
2017-06-03T20:49:53.405Z,15.80
2017-06-03T20:52:21.299Z,15.90
2017-06-03T20:54:49.579Z,15.90
2017-06-03T20:57:17.095Z,15.90
2017-06-03T20:59:44.620Z,15.80
2017-06-03T21:02:12.234Z,15.80
2017-06-03T21:04:39.726Z,15.90
2017-06-03T21:07:07.227Z,15.80
2017-06-03T21:09:34.734Z,15.70
2017-06-03T21:12:02.535Z,15.70
2017-06-03T21:14:30.216Z,15.70
2017-06-03T21:16:58.043Z,15.60
2017-06-03T21:19:25.571Z,15.50
2017-06-03T21:21:53.118Z,15.50
2017-06-03T21:24:20.630Z,15.50
2017-06-03T21:26:48.167Z,15.50
2017-06-03T21:29:15.703Z,15.40
2017-06-03T21:31:43.286Z,15.40
2017-06-03T21:34:10.832Z,15.40
2017-06-03T21:36:38.339Z,15.50
2017-06-03T21:39:05.842Z,15.60
2017-06-03T21:41:33.471Z,15.60
2017-06-03T21:44:01.722Z,15.50
2017-06-03T21:46:29.272Z,15.50
2017-06-03T21:48:57.615Z,15.40
2017-06-03T21:51:25.141Z,15.40
2017-06-03T21:53:52.716Z,15.30
2017-06-03T21:56:20.267Z,15.20
2017-06-03T21:58:47.848Z,15.20
2017-06-03T22:01:15.352Z,15.10
2017-06-03T22:03:42.844Z,15.00
2017-06-03T22:06:10.379Z,15.00
2017-06-03T22:08:38.645Z,15.00
2017-06-03T22:11:07.280Z,14.90
2017-06-03T22:13:34.795Z,14.90
2017-06-03T22:16:02.602Z,15.00
2017-06-03T22:18:30.347Z,15.00
2017-06-03T22:20:58.125Z,15.00
2017-06-03T22:23:25.614Z,15.00
2017-06-03T22:25:53.124Z,15.00
2017-06-03T22:28:20.780Z,15.00
2017-06-03T22:30:48.343Z,15.00
2017-06-03T22:33:16.112Z,15.00
2017-06-03T22:35:43.612Z,15.00
2017-06-03T22:38:11.895Z,15.00
2017-06-03T22:40:40.208Z,15.00
2017-06-03T22:43:08.088Z,15.00
2017-06-03T22:45:35.616Z,15.00
2017-06-03T22:48:03.107Z,15.00
2017-06-03T22:50:30.860Z,14.90
2017-06-03T22:52:58.352Z,14.90
2017-06-03T22:55:25.888Z,14.90
2017-06-03T22:57:53.652Z,14.80
2017-06-03T23:00:21.527Z,14.70
2017-06-03T23:02:49.083Z,14.70
2017-06-03T23:05:16.577Z,14.60
2017-06-03T23:07:44.851Z,14.60
2017-06-03T23:10:12.451Z,14.60
2017-06-03T23:12:40.312Z,14.60
2017-06-03T23:15:08.071Z,14.50
2017-06-03T23:17:35.583Z,14.50
2017-06-03T23:20:03.848Z,14.60
2017-06-03T23:22:31.411Z,14.50
2017-06-03T23:24:59.717Z,14.50
2017-06-03T23:27:27.249Z,14.50
2017-06-03T23:29:55.563Z,14.50
2017-06-03T23:32:23.334Z,14.50
2017-06-03T23:34:50.913Z,14.50
2017-06-03T23:37:18.408Z,14.60
2017-06-03T23:39:45.939Z,14.60
2017-06-03T23:42:13.764Z,14.50
2017-06-03T23:44:41.343Z,14.50
2017-06-03T23:47:08.839Z,14.50
2017-06-03T23:49:36.644Z,14.50
2017-06-03T23:52:04.176Z,14.50
2017-06-03T23:54:31.719Z,14.50
2017-06-03T23:56:59.240Z,14.50
2017-06-03T23:59:26.740Z,14.50
